METAR Data
IDs: Format: Raw Decoded Include TAF

Data at: 1128 UTC 26 Sep 2018

KDNN 261115Z AUTO 14005KT 10SM VCTS BKN019 OVC023 22/21 A3010 RMK AO2 LTG DSNT SW THRU NW
KDNN 261055Z AUTO 15004KT 10SM TS OVC019 22/21 A3010 RMK AO2 LTG DSNT NW
KDNN 261035Z AUTO 15003KT 10SM VCTS OVC021 22/22 A3010 RMK AO2 LTG DSNT NE SW AND NW
KDNN 261015Z AUTO 15003KT 10SM OVC023 22/22 A3010 RMK AO2 LTG DSNT NE
KDNN 260955Z AUTO 15003KT 10SM BKN023 OVC075 22/22 A3009 RMK AO2 LTG DSNT NE AND W
KDNN 260935Z AUTO 00000KT 10SM SCT025 OVC075 22/22 A3010 RMK AO2 LTG DSNT NE
KDNN 260915Z AUTO 00000KT 10SM SCT085 OVC100 22/21 A3009 RMK AO2 LTG DSNT NE AND W
KDNN 260855Z AUTO 00000KT 10SM OVC100 22/21 A3009 RMK AO2 LTG DSNT NE
KDNN 260835Z AUTO 00000KT 10SM OVC110 22/22 A3009 RMK AO2 LTG DSNT N
KDNN 260815Z AUTO 16003KT 10SM SCT046 SCT050 OVC095 22/22 A3009 RMK AO2 LTG DSNT N AND NE
KDNN 260755Z AUTO 19003KT 10SM SCT048 BKN060 OVC095 22/22 A3010 RMK AO2 LTG DSNT N
KDNN 260735Z AUTO 00000KT 10SM VCTS SCT050 SCT075 OVC095 22/22 A3010 RMK AO2 LTG DSNT SW THRU N
KDNN 260715Z AUTO 14003KT 10SM -RA SCT038 BKN075 OVC085 22/22 A3011 RMK AO2 LTG DSNT W THRU N
KDNN 260700Z AUTO 00000KT 10SM SCT033 BKN060 OVC075 22/22 A3012 RMK AO2
KDNN 260635Z AUTO 00000KT 10SM VCTS SCT009 BKN037 OVC060 22/22 A3012 RMK AO2 LTG DSNT W
KDNN 260615Z AUTO 18004KT 7SM RA SCT009 BKN021 OVC031 22/22 A3013 RMK AO2 LTG DSNT NE
KDNN 260555Z AUTO 16008KT 2SM +TSRA BKN009 OVC023 22/22 A3012 RMK AO2 LTG DSNT N
KDNN 260535Z AUTO 24003KT 10SM TS BKN034 BKN045 OVC075 22/22 A3012 RMK AO2 LTG DSNT N
KDNN 260515Z AUTO 18003KT 10SM SCT036 BKN060 OVC085 22/22 A3012 RMK AO2 LTG DSNT N AND W
KDNN 260455Z AUTO 00000KT 10SM BKN038 OVC060 22/22 A3013 RMK AO2 LTG DSNT W THRU NE
KDNN 260435Z AUTO 25003KT 10SM SCT019 BKN039 OVC055 23/22 A3013 RMK AO2 LTG DSNT NW
KDNN 260420Z AUTO 17005KT 10SM -VCTSRA SCT021 SCT042 BKN050 23/21 A3011 RMK AO2 LTG DSNT N AND NW
KDNN 260355Z AUTO 16005KT 10SM SCT085 23/21 A3012 RMK AO2 LTG DSNT N AND NW
KDNN 260335Z AUTO 18003KT 10SM SCT042 23/22 A3013 RMK AO2 LTG DSNT N
KDNN 260315Z AUTO 16003KT 10SM SCT041 SCT050 BKN090 23/22 A3013 RMK AO2 LTG DSNT N AND NW
KDNN 260255Z AUTO 20003KT 10SM SCT055 BKN070 BKN085 24/22 A3014 RMK AO2 LTG DSNT N AND NW
KDNN 260235Z AUTO 16006KT 10SM SCT042 SCT055 BKN065 24/22 A3013 RMK AO2 LTG DSNT N AND NW
KDNN 260215Z AUTO 15004KT 10SM SCT041 BKN065 OVC100 24/22 A3012 RMK AO2 LTG DSNT W THRU N
KDNN 260155Z AUTO 15005KT 10SM SCT041 SCT050 24/22 A3013 RMK AO2 LTG DSNT W THRU N
KDNN 260135Z AUTO 15005KT 10SM CLR 24/22 A3011 RMK AO2 LTG DSNT SW THRU N
KDNN 260115Z AUTO 15008KT 10SM CLR 24/22 A3010 RMK AO2 LTG DSNT W THRU N
KDNN 260055Z AUTO 14008KT 10SM CLR 25/22 A3009 RMK AO2 LTG DSNT W THRU N
KDNN 260035Z AUTO 14006KT 10SM CLR 25/22 A3009 RMK AO2 LTG DSNT W THRU N
KDNN 260015Z AUTO 15006KT 10SM VCTS CLR 25/22 A3008 RMK AO2 LTG DSNT N AND W
KDNN 252355Z AUTO 14007KT 10SM CLR 26/22 A3008 RMK AO2 LTG DSNT W THRU N
KDNN 252335Z AUTO 14006KT 10SM SCT090 SCT120 26/22 A3007 RMK AO2 LTG DSNT N AND W
KDNN 252315Z AUTO 14004KT 10SM BKN080 BKN120 26/22 A3007 RMK AO2 LTG DSNT W
KDNN 252255Z AUTO 15003KT 10SM BKN080 OVC110 27/23 A3007 RMK AO2 LTG DSNT W AND NW
KDNN 252235Z AUTO 00000KT 10SM OVC080 26/23 A3008 RMK AO2
KDNN 252215Z AUTO 14003KT 10SM SCT037 BKN080 BKN120 27/22 A3008 RMK AO2
KDNN 252155Z AUTO 14004KT 10SM SCT085 SCT120 27/22 A3008 RMK AO2 LTG DSNT NW
KDNN 252135Z AUTO 15004KT 10SM SCT085 SCT110 28/22 A3008 RMK AO2 LTG DSNT N
KDNN 252115Z AUTO 14004KT 10SM SCT085 27/22 A3008 RMK AO2
KDNN 252055Z AUTO 15006KT 10SM SCT031 SCT085 27/22 A3009 RMK AO2
KDNN 252035Z AUTO 13011KT 10SM SCT029 SCT075 28/22 A3010 RMK AO2
KDNN 252015Z AUTO 14010KT 10SM SCT075 28/22 A3010 RMK AO2
KDNN 251955Z AUTO 14012KT 10SM SCT050 SCT085 28/22 A3011 RMK AO2
KDNN 251935Z AUTO 13009KT 10SM SCT024 SCT029 SCT050 28/22 A3011 RMK AO2
KDNN 251915Z AUTO 12010G15KT 10SM SCT024 BKN031 OVC060 27/22 A3012 RMK AO2
KDNN 251855Z AUTO 12008G14KT 10SM BKN026 OVC035 27/22 A3013 RMK AO2
KDNN 251835Z AUTO 13009KT 10SM SCT026 BKN031 BKN039 28/22 A3014 RMK AO2
KDNN 251815Z AUTO 17006KT 10SM SCT050 28/22 A3015 RMK AO2
KDNN 251755Z AUTO 15006KT 10SM SCT033 SCT046 SCT050 26/22 A3016 RMK AO2
KDNN 251735Z AUTO 14008KT 10SM SCT030 SCT040 BKN046 26/22 A3016 RMK AO2 LTG DSNT N AND NW
KDNN 251715Z AUTO 14012KT 10SM SCT017 SCT029 OVC044 26/22 A3017 RMK AO2
KDNN 251655Z AUTO 13010KT 10SM SCT017 BKN027 OVC050 25/22 A3018 RMK AO2
KDNN 251635Z AUTO 14008KT 106V166 10SM SCT013 BKN019 OVC043 25/22 A3018 RMK AO2
KDNN 251615Z AUTO 13008KT 10SM SCT020 BKN034 OVC045 25/22 A3018 RMK AO2
KDNN 251555Z AUTO 14008KT 10SM BKN022 OVC028 24/22 A3018 RMK AO2 P0001
KDNN 251535Z AUTO 15009KT 126V186 10SM BKN028 OVC035 24/22 A3018 RMK AO2 P0001
KDNN 251515Z AUTO 15010KT 10SM OVC028 23/23 A3019 RMK AO2
KDNN 251455Z AUTO 14005KT 10SM OVC026 23/23 A3018 RMK AO2
KDNN 251435Z AUTO 16005KT 10SM SCT008 OVC026 22/22 A3018 RMK AO2
KDNN 251415Z AUTO 00000KT 10SM RA BKN008 OVC026 22/22 A3018 RMK AO2
KDNN 251355Z AUTO 15004KT 10SM SCT006 SCT013 OVC026 22/22 A3018 RMK AO2
KDNN 251335Z AUTO 16004KT 10SM OVC028 22/22 A3018 RMK AO2 LTG DSNT E
KDNN 251315Z AUTO 14005KT 10SM -DZ SCT017 OVC028 22/22 A3018 RMK AO2
KDNN 251255Z AUTO 15004KT 10SM SCT017 SCT024 OVC030 21/21 A3018 RMK AO2
KDNN 251235Z AUTO 16005KT 10SM -RA SCT017 BKN025 OVC030 21/21 A3018 RMK AO2
KDNN 251215Z AUTO 00000KT 10SM -DZ SCT017 BKN025 OVC032 21/21 A3018 RMK AO2
KDNN 251155Z AUTO 15003KT 10SM -DZ SCT022 BKN033 OVC110 21/21 A3017 RMK AO2
KDNN 251135Z AUTO 14004KT 10SM DZ SCT020 BKN031 OVC110 21/21 A3017 RMK AO2
KDNN 251115Z AUTO 17003KT 10SM -RA BKN013 BKN020 OVC048 21/21 A3017 RMK AO2
KDNN 251055Z AUTO 18003KT 10SM RA BKN013 BKN025 OVC029 21/21 A3017 RMK AO2 P0001 LTG DSNT N
KDNN 251035Z AUTO 17004KT 10SM BKN033 BKN041 OVC055 21/21 A3016 RMK AO2 P0001
KDNN 251015Z AUTO 14006KT 10SM SCT021 SCT036 OVC055 21/21 A3015 RMK AO2 P0001
KDNN 250955Z AUTO 14008KT 10SM BKN023 OVC055 21/21 A3015 RMK AO2 LTG DSNT N AND NW
KDNN 250935Z AUTO 16003KT 10SM BKN023 BKN050 OVC080 21/21 A3015 RMK AO2 LTG DSNT NW
KDNN 250915Z AUTO 17003KT 10SM SCT025 BKN080 OVC120 20/20 A3014 RMK AO2 LTG DSNT N
KDNN 250855Z AUTO 00000KT 10SM SCT080 SCT120 20/20 A3014 RMK AO2
KDNN 250835Z AUTO 00000KT 10SM SCT022 SCT100 SCT120 20/20 A3014 RMK AO2 LTG DSNT N
KDNN 250815Z AUTO 00000KT 10SM DZ SCT065 SCT080 BKN110 20/20 A3014 RMK AO2
KDNN 250755Z AUTO 00000KT 10SM -RA SCT021 BKN065 OVC100 20/20 A3015 RMK AO2
KDNN 250735Z AUTO 00000KT 10SM DZ BKN021 BKN029 OVC050 20/20 A3016 RMK AO2
KDNN 250715Z AUTO 00000KT 10SM DZ SCT021 BKN036 OVC060 20/20 A3016 RMK AO2
KDNN 250655Z AUTO 00000KT 10SM RA SCT039 SCT045 OVC050 20/20 A3016 RMK AO2 LTG DSNT S
KDNN 250635Z AUTO 00000KT 10SM -RA BKN039 OVC050 20/20 A3016 RMK AO2 LTG DSNT N
KDNN 250615Z AUTO 00000KT 7SM RA SCT042 OVC050 20/20 A3016 RMK AO2
KDNN 250555Z AUTO 13003KT 20/20 A3017 RMK AO2 PWINO
KDNN 250535Z AUTO 13004KT 7SM RA SCT008 BKN035 OVC046 20/20 A3018 RMK AO2 P0001 LTG DSNT S
KDNN 250515Z AUTO 14003KT 7SM -RA BKN006 BKN023 OVC041 20/20 A3019 RMK AO2 P0001 LTG DSNT S
KDNN 250455Z AUTO 11006KT 7SM -RA BKN008 BKN022 OVC030 20/20 A3020 RMK AO2 LTG DSNT S AND SW
KDNN 250435Z AUTO 11003KT 4SM RA SCT010 BKN022 OVC030 20/20 A3020 RMK AO2 LTG DSNT S
KDNN 250415Z AUTO 17003KT 4SM TSRA SCT016 BKN025 OVC032 20/20 A3021 RMK AO2 LTG DSNT S AND SW
KDNN 250355Z AUTO 13004KT 2SM +RA BKN012 OVC017 20/20 A3019 RMK AO2 P0001 LTG DSNT S AND SW
KDNN 250335Z AUTO 00000KT 2SM +VCTSRA BKN010 BKN014 OVC030 20/20 A3020 RMK AO2 P0001 LTG DSNT N S AND SW
KDNN 250315Z AUTO 25008KT 5SM VCTSRA BKN021 OVC028 21/20 A3020 RMK AO2 LTG DSNT W THRU N
KDNN 250255Z AUTO 25005KT 7SM RA SCT013 OVC021 21/20 A3019 RMK AO2 P0001 LTG DSNT SW THRU NW
KDNN 250235Z AUTO 25006KT 7SM RA SCT013 BKN050 OVC090 22/21 A3017 RMK AO2 LTG DSNT SW
KDNN 250215Z AUTO 17004KT 10SM VCTSRA SCT065 SCT075 OVC090 22/21 A3015 RMK AO2 LTG DSNT SW THRU NW
KDNN 250200Z AUTO 15005KT 10SM DZ BKN080 OVC110 22/21 A3014 RMK AO2 LTG DSNT SW AND W
KDNN 250135Z AUTO 15006KT 10SM -DZ SCT110 22/21 A3012 RMK AO2 LTG DSNT SW
KDNN 250115Z AUTO 14005KT 10SM -DZ CLR 23/21 A3010 RMK AO2 LTG DSNT SW
KDNN 250055Z AUTO 15004KT 10SM -RA CLR 23/21 A3010 RMK AO2 LTG DSNT S THRU W
KDNN 250035Z AUTO 13005KT 10SM SCT070 SCT100 23/21 A3009 RMK AO2 LTG DSNT SW
KDNN 250015Z AUTO 14004KT 10SM -DZ SCT090 23/21 A3009 RMK AO2
KDNN 242355Z AUTO 12003KT 10SM SCT070 BKN090 OVC120 23/21 A3009 RMK AO2
KDNN 242335Z AUTO 10003KT 10SM OVC085 24/22 A3009 RMK AO2